Time;durP1;ratioP1;P1;durP2;ratioP2;P2;SDS_P1;SDS_P2;PMS_P1;PMS_P2;Temp;Humidity;BMP_temperature;BMP_pressure;BME280_temperature;BME280_humidity;BME280_pressure;Samples;Min_cycle;Max_cycle;Signal;HPM_P1;HPM_P2
2023/09/19 00:01:45;;;;;;;;;;;;;;;14.94;99.83;95568.88;5136657;27;1010;-56
2023/09/19 00:04:14;;;;;;;;;;;;;;;15.18;98.79;95560.63;5136404;27;1909;-56
2023/09/19 00:06:41;;;;;;;;;;;;;;;15.29;98.82;95550.44;5136504;27;1032;-56
2023/09/19 00:09:10;;;;;;;;;;;;;;;15.22;99.21;95566.50;5136251;27;1024;-56
2023/09/19 00:11:37;;;;;;;;;;;;;;;15.13;99.76;95568.41;5136046;27;1211;-56
2023/09/19 00:14:04;;;;;;;;;;;;;;;15.13;100.00;95570.25;5136321;27;1010;-56
2023/09/19 00:16:32;;;;;;;;;;;;;;;15.00;100.00;95573.53;5135986;27;1024;-56
2023/09/19 00:18:59;;;;;;;;;;;;;;;14.83;99.85;95570.09;5135848;27;1095;-56
2023/09/19 00:21:25;;;;;;;;;;;;;;;14.80;100.00;95560.53;5136122;27;1060;-56
2023/09/19 00:23:51;;;;;;;;;;;;;;;14.76;100.00;95566.44;5135848;27;1914;-56
2023/09/19 00:26:18;;;;;;;;;;;;;;;14.76;100.00;95571.81;5135650;27;1012;-56
2023/09/19 00:28:44;;;;;;;;;;;;;;;14.80;100.00;95562.41;5136073;27;987;-56
2023/09/19 00:31:10;;;;;;;;;;;;;;;14.70;100.00;95568.00;5135881;27;1055;-56
2023/09/19 00:33:36;;;;;;;;;;;;;;;14.54;100.00;95566.19;5135813;27;979;-56
2023/09/19 00:36:05;;;;;;;;;;;;;;;14.47;100.00;95567.91;5135963;27;1046;-56
2023/09/19 00:38:31;;;;;;;;;;;;;;;14.61;100.00;95569.06;5135522;27;1023;-56
2023/09/19 00:40:59;;;;;;;;;;;;;;;14.71;100.00;95566.16;5135500;27;1031;-56
2023/09/19 00:43:27;;;;;;;;;;;;;;;14.72;100.00;95570.50;5135166;27;1985;-56
2023/09/19 00:45:54;;;;;;;;;;;;;;;14.70;100.00;95559.94;5135599;27;1032;-56
2023/09/19 00:48:20;;;;;;;;;;;;;;;14.61;100.00;95558.28;5135344;27;1080;-56
2023/09/19 00:50:47;;;;;;;;;;;;;;;14.55;100.00;95558.94;5135425;27;1047;-56
2023/09/19 00:53:15;;;;;;;;;;;;;;;14.58;100.00;95559.47;5135709;27;991;-56
2023/09/19 00:55:42;;;;;;;;;;;;;;;14.60;100.00;95553.91;5135567;27;1090;-56
2023/09/19 00:58:10;;;;;;;;;;;;;;;14.63;100.00;95554.41;5130536;27;1258;-56
2023/09/19 01:00:36;;;;;;;;;;;;;;;14.69;100.00;95555.56;5114789;28;1024;-56
2023/09/19 01:03:02;;;;;;;;;;;;;;;14.61;100.00;95553.75;5114764;28;1909;-56
2023/09/19 01:05:32;;;;;;;;;;;;;;;14.48;100.00;95550.75;5114732;28;1008;-56
2023/09/19 01:07:58;;;;;;;;;;;;;;;14.41;100.00;95547.09;5114463;28;1036;-56
2023/09/19 01:10:25;;;;;;;;;;;;;;;14.34;100.00;95544.28;5114655;28;1040;-56
2023/09/19 01:12:57;;;;;;;;;;;;;;;14.35;100.00;95553.16;5114577;28;957;-56
2023/09/19 01:15:33;;;;;;;;;;;;;;;14.30;100.00;95558.22;5114248;28;1045;-56
2023/09/19 01:18:03;;;;;;;;;;;;;;;14.13;100.00;95547.50;5114280;28;1134;-56
2023/09/19 01:20:38;;;;;;;;;;;;;;;14.15;100.00;95547.34;5114402;28;1028;-56
2023/09/19 01:23:04;;;;;;;;;;;;;;;14.21;100.00;95552.06;5114517;28;1997;-56
2023/09/19 01:25:55;;;;;;;;;;;;;;;14.29;100.00;95545.81;5114295;28;982;-56
2023/09/19 01:28:27;;;;;;;;;;;;;;;14.54;100.00;95547.34;5114185;28;1227;-56
2023/09/19 01:30:57;;;;;;;;;;;;;;;14.50;100.00;95553.28;5113568;28;984;-56
2023/09/19 01:33:23;;;;;;;;;;;;;;;14.53;100.00;95545.69;5114464;28;981;-56
2023/09/19 01:35:50;;;;;;;;;;;;;;;14.34;100.00;95546.97;5114352;28;1040;-56
2023/09/19 01:38:17;;;;;;;;;;;;;;;14.20;100.00;95553.06;5113910;28;1082;-56
2023/09/19 01:40:47;;;;;;;;;;;;;;;14.28;100.00;95557.56;5113983;28;1091;-56
2023/09/19 01:43:33;;;;;;;;;;;;;;;14.31;100.00;95559.91;5113877;28;1905;-56
2023/09/19 01:46:04;;;;;;;;;;;;;;;14.37;100.00;95560.03;5113979;28;1071;-56
2023/09/19 01:48:57;;;;;;;;;;;;;;;14.31;100.00;95543.78;5113883;28;1032;-56
2023/09/19 01:51:41;;;;;;;;;;;;;;;14.29;100.00;95559.25;5110122;28;1078;-56
2023/09/19 01:54:12;;;;;;;;;;;;;;;14.33;100.00;95550.66;5113990;28;1044;-56
2023/09/19 01:56:42;;;;;;;;;;;;;;;14.17;100.00;95551.56;5113847;28;1965;-56
2023/09/19 01:59:13;;;;;;;;;;;;;;;14.01;100.00;95552.44;5126822;28;1298;-56
2023/09/19 02:01:44;;;;;;;;;;;;;;;14.15;100.00;95553.59;5134480;27;973;-55
2023/09/19 02:04:10;;;;;;;;;;;;;;;14.24;100.00;95557.91;5134208;27;1906;-56
2023/09/19 02:06:39;;;;;;;;;;;;;;;14.28;100.00;95553.00;5134166;27;1016;-56
2023/09/19 02:09:05;;;;;;;;;;;;;;;14.24;100.00;95547.13;5134507;27;1069;-56
2023/09/19 02:11:31;;;;;;;;;;;;;;;14.19;100.00;95533.41;5134288;27;1047;-56
2023/09/19 02:13:59;;;;;;;;;;;;;;;14.27;100.00;95537.06;5134497;27;1036;-56
2023/09/19 02:16:25;;;;;;;;;;;;;;;14.28;100.00;95526.13;5134027;27;1056;-56
2023/09/19 02:18:51;;;;;;;;;;;;;;;14.40;100.00;95527.41;5134096;27;1051;-55
2023/09/19 02:21:17;;;;;;;;;;;;;;;14.57;100.00;95536.28;5134236;27;1036;-55
2023/09/19 02:23:44;;;;;;;;;;;;;;;14.51;100.00;95531.53;5134260;27;1905;-56
2023/09/19 02:26:11;;;;;;;;;;;;;;;14.39;100.00;95528.41;5134306;27;991;-55
2023/09/19 02:28:37;;;;;;;;;;;;;;;14.37;100.00;95540.38;5134057;27;1110;-56
2023/09/19 02:31:07;;;;;;;;;;;;;;;14.41;100.00;95528.25;5133087;28;1070;-56
2023/09/19 02:33:33;;;;;;;;;;;;;;;14.47;100.00;95535.59;5133907;27;1079;-55
2023/09/19 02:36:00;;;;;;;;;;;;;;;14.27;100.00;95537.06;5133940;27;1119;-55
2023/09/19 02:38:26;;;;;;;;;;;;;;;14.31;100.00;95530.31;5133883;27;1079;-56
2023/09/19 02:40:52;;;;;;;;;;;;;;;14.19;100.00;95528.03;5134284;27;995;-56
2023/09/19 02:43:19;;;;;;;;;;;;;;;14.20;100.00;95536.91;5137312;27;1905;-55
2023/09/19 02:45:46;;;;;;;;;;;;;;;14.23;100.00;95536.59;5138139;27;948;-55
2023/09/19 02:48:12;;;;;;;;;;;;;;;14.23;100.00;95545.47;5137603;27;1040;-55
2023/09/19 02:50:40;;;;;;;;;;;;;;;14.03;99.37;95528.91;5136506;27;1090;-55
2023/09/19 02:53:06;;;;;;;;;;;;;;;13.99;100.00;95530.25;5137953;27;937;-55
2023/09/19 02:55:32;;;;;;;;;;;;;;;14.12;100.00;95527.03;5137560;27;1083;-55
2023/09/19 02:57:58;;;;;;;;;;;;;;;14.17;99.85;95521.13;5133509;27;1311;-56
2023/09/19 03:00:24;;;;;;;;;;;;;;;14.11;100.00;95519.97;5116930;28;1012;-57
2023/09/19 03:02:52;;;;;;;;;;;;;;;14.13;100.00;95517.94;5117079;28;1905;-57
2023/09/19 03:05:19;;;;;;;;;;;;;;;14.13;100.00;95517.09;5115811;28;1016;-57
2023/09/19 03:07:51;;;;;;;;;;;;;;;14.14;100.00;95518.78;5117053;28;1023;-57
2023/09/19 03:10:18;;;;;;;;;;;;;;;13.89;99.90;95515.34;5116881;28;999;-57
2023/09/19 03:12:44;;;;;;;;;;;;;;;13.79;100.00;95518.22;5116829;27;1103;-57
2023/09/19 03:15:10;;;;;;;;;;;;;;;13.78;100.00;95512.00;5116718;28;992;-57
2023/09/19 03:17:36;;;;;;;;;;;;;;;13.83;100.00;95516.88;5116561;28;987;-57
2023/09/19 03:20:04;;;;;;;;;;;;;;;13.88;100.00;95519.03;5116910;28;1036;-57
2023/09/19 03:22:30;;;;;;;;;;;;;;;13.89;100.00;95518.03;5116695;28;981;-57
2023/09/19 03:24:56;;;;;;;;;;;;;;;13.90;100.00;95525.09;5116694;28;1906;-56
2023/09/19 03:27:22;;;;;;;;;;;;;;;13.89;100.00;95526.09;5116657;28;1039;-56
2023/09/19 03:29:48;;;;;;;;;;;;;;;13.89;99.77;95524.25;5116728;28;1040;-57
2023/09/19 03:32:15;;;;;;;;;;;;;;;13.76;100.00;95532.84;5116725;28;1031;-57
2023/09/19 03:34:43;;;;;;;;;;;;;;;13.71;99.47;95526.31;5116325;28;1110;-56
2023/09/19 03:37:09;;;;;;;;;;;;;;;13.52;100.00;95524.84;5116446;28;1067;-57
2023/09/19 03:39:35;;;;;;;;;;;;;;;13.51;100.00;95523.16;5116570;27;1040;-57
2023/09/19 03:42:03;;;;;;;;;;;;;;;13.48;100.00;95524.34;5116284;28;1055;-57
2023/09/19 03:44:30;;;;;;;;;;;;;;;13.61;100.00;95523.81;5115883;28;1913;-57
2023/09/19 03:46:56;;;;;;;;;;;;;;;13.68;100.00;95530.19;5116049;28;988;-57
2023/09/19 03:49:22;;;;;;;;;;;;;;;13.85;100.00;95525.63;5115940;27;1095;-57
2023/09/19 03:51:48;;;;;;;;;;;;;;;13.92;99.04;95525.75;5116051;28;1047;-57
2023/09/19 03:54:14;;;;;;;;;;;;;;;13.86;98.97;95522.72;5115487;28;1032;-56
2023/09/19 03:56:40;;;;;;;;;;;;;;;13.83;99.52;95528.47;5115946;28;1048;-55
2023/09/19 03:59:08;;;;;;;;;;;;;;;13.82;99.34;95525.94;5128592;27;1286;-56
2023/09/19 04:01:34;;;;;;;;;;;;;;;13.66;99.26;95524.16;5136508;27;1039;-56
2023/09/19 04:04:07;;;;;;;;;;;;;;;13.52;99.68;95525.66;5136481;27;1914;-56
2023/09/19 04:06:35;;;;;;;;;;;;;;;13.53;100.00;95519.28;5136163;27;1098;-56
2023/09/19 04:09:01;;;;;;;;;;;;;;;13.58;99.38;95524.16;5136502;27;1032;-56
2023/09/19 04:11:27;;;;;;;;;;;;;;;13.63;98.67;95532.53;5136184;27;992;-56
2023/09/19 04:13:53;;;;;;;;;;;;;;;13.58;99.04;95529.50;5136172;27;972;-56
2023/09/19 04:16:19;;;;;;;;;;;;;;;13.40;99.18;95527.88;5135915;27;1002;-56
2023/09/19 04:18:46;;;;;;;;;;;;;;;13.25;100.00;95541.09;5135963;27;1020;-56
2023/09/19 04:21:12;;;;;;;;;;;;;;;13.27;100.00;95525.66;5135825;27;1052;-56
2023/09/19 04:23:38;;;;;;;;;;;;;;;13.54;100.00;95538.94;5136128;27;1910;-56
2023/09/19 04:26:04;;;;;;;;;;;;;;;13.71;100.00;95537.06;5136181;27;960;-56
2023/09/19 04:28:31;;;;;;;;;;;;;;;13.72;99.76;95536.91;5136046;27;1145;-56
2023/09/19 04:30:58;;;;;;;;;;;;;;;13.74;99.40;95537.56;5136049;27;1055;-56
2023/09/19 04:33:24;;;;;;;;;;;;;;;13.74;100.00;95537.56;5135606;27;1071;-56
2023/09/19 04:35:51;;;;;;;;;;;;;;;13.79;99.82;95537.91;5135880;27;965;-56
2023/09/19 04:38:17;;;;;;;;;;;;;;;13.82;100.00;95539.38;5135661;27;1036;-55
2023/09/19 04:40:43;;;;;;;;;;;;;;;13.84;100.00;95548.13;5135582;27;1110;-55
2023/09/19 04:43:09;;;;;;;;;;;;;;;13.84;100.00;95542.75;5135220;27;1905;-55
2023/09/19 04:45:38;;;;;;;;;;;;;;;13.96;100.00;95545.91;5135948;27;982;-55
2023/09/19 04:48:04;;;;;;;;;;;;;;;14.05;100.00;95540.31;5135627;27;965;-55
2023/09/19 04:50:30;;;;;;;;;;;;;;;14.21;100.00;95544.81;5135581;27;1008;-55
2023/09/19 04:52:56;;;;;;;;;;;;;;;14.39;100.00;95544.56;5135365;27;1072;-55
2023/09/19 04:55:22;;;;;;;;;;;;;;;14.56;100.00;95541.81;5135181;27;1055;-56
2023/09/19 04:57:53;;;;;;;;;;;;;;;14.64;100.00;95548.03;5133618;27;1231;-55
2023/09/19 05:00:23;;;;;;;;;;;;;;;14.51;100.00;95541.47;5114833;28;1036;-55
2023/09/19 05:02:55;;;;;;;;;;;;;;;14.59;100.00;95539.63;5114720;27;1991;-55
2023/09/19 05:05:22;;;;;;;;;;;;;;;14.86;100.00;95531.25;5113608;28;1087;-55
2023/09/19 05:07:48;;;;;;;;;;;;;;;14.92;100.00;95528.66;5114645;28;951;-56
2023/09/19 05:10:14;;;;;;;;;;;;;;;15.01;100.00;95532.13;5114381;28;1012;-56
2023/09/19 05:12:40;;;;;;;;;;;;;;;15.08;100.00;95526.84;5114308;28;1020;-55
2023/09/19 05:15:07;;;;;;;;;;;;;;;15.17;100.00;95533.88;5114367;27;1119;-56
2023/09/19 05:17:34;;;;;;;;;;;;;;;15.27;100.00;95533.63;5114409;28;965;-55
2023/09/19 05:20:05;;;;;;;;;;;;;;;15.34;100.00;95530.00;5113238;28;968;-56
2023/09/19 05:22:32;;;;;;;;;;;;;;;15.39;100.00;95530.31;5113038;28;1017;-56
2023/09/19 05:24:58;;;;;;;;;;;;;;;15.58;100.00;95528.13;5114460;28;1988;-56
2023/09/19 05:27:24;;;;;;;;;;;;;;;15.73;100.00;95522.78;5114083;28;1051;-56
2023/09/19 05:29:53;;;;;;;;;;;;;;;15.90;100.00;95524.31;5114223;28;1083;-56
2023/09/19 05:32:19;;;;;;;;;;;;;;;15.98;100.00;95524.19;5114317;28;1097;-56
2023/09/19 05:34:47;;;;;;;;;;;;;;;16.04;100.00;95519.94;5114019;28;1032;-55
2023/09/19 05:37:13;;;;;;;;;;;;;;;16.22;100.00;95519.56;5113942;28;1032;-56
2023/09/19 05:39:39;;;;;;;;;;;;;;;16.32;99.87;95524.66;5113973;28;1034;-56
2023/09/19 05:42:05;;;;;;;;;;;;;;;16.31;99.39;95526.50;5114186;28;973;-56
2023/09/19 05:44:33;;;;;;;;;;;;;;;16.36;98.82;95528.66;5113611;28;1913;-55
2023/09/19 05:46:59;;;;;;;;;;;;;;;16.37;99.80;95543.81;5114102;28;954;-56
2023/09/19 05:49:25;;;;;;;;;;;;;;;16.19;100.00;95536.94;5113729;28;1060;-55
2023/09/19 05:51:53;;;;;;;;;;;;;;;15.97;100.00;95530.63;5114135;28;969;-56
2023/09/19 05:54:20;;;;;;;;;;;;;;;16.02;100.00;95532.75;5113650;28;973;-55
2023/09/19 05:56:47;;;;;;;;;;;;;;;15.92;100.00;95529.50;5114113;28;1037;-56
2023/09/19 05:59:15;;;;;;;;;;;;;;;15.87;100.00;95534.63;5127647;28;1303;-56
2023/09/19 06:01:44;;;;;;;;;;;;;;;15.93;100.00;95531.16;5134459;27;1108;-56
2023/09/19 06:04:10;;;;;;;;;;;;;;;16.10;100.00;95538.06;5134246;27;1910;-56
2023/09/19 06:06:38;;;;;;;;;;;;;;;16.19;100.00;95539.63;5134356;27;999;-56
2023/09/19 06:09:08;;;;;;;;;;;;;;;16.28;100.00;95534.16;5134407;27;1059;-55
2023/09/19 06:11:35;;;;;;;;;;;;;;;16.23;100.00;95536.59;5134311;27;999;-56
2023/09/19 06:14:02;;;;;;;;;;;;;;;16.17;100.00;95538.16;5134493;27;1015;-56
2023/09/19 06:16:29;;;;;;;;;;;;;;;16.41;100.00;95531.66;5136647;27;1021;-55
2023/09/19 06:18:55;;;;;;;;;;;;;;;16.65;99.51;95525.06;5138382;27;1055;-56
2023/09/19 06:21:22;;;;;;;;;;;;;;;16.76;98.33;95526.44;5137127;27;1044;-56
2023/09/19 06:23:48;;;;;;;;;;;;;;;16.75;99.07;95524.75;5138416;27;1979;-56
2023/09/19 06:26:14;;;;;;;;;;;;;;;16.60;98.10;95527.50;5138428;27;1027;-56
2023/09/19 06:28:42;;;;;;;;;;;;;;;16.57;99.08;95520.63;5138117;27;1090;-56
2023/09/19 06:31:09;;;;;;;;;;;;;;;16.69;98.30;95517.44;5138109;27;1094;-55
2023/09/19 06:33:42;;;;;;;;;;;;;;;16.72;98.64;95519.75;5138153;27;1043;-55
2023/09/19 06:36:09;;;;;;;;;;;;;;;16.65;99.11;95521.53;5138016;27;1075;-55
2023/09/19 06:38:36;;;;;;;;;;;;;;;16.58;98.46;95527.69;5138390;27;1217;-55
2023/09/19 06:41:06;;;;;;;;;;;;;;;16.71;97.75;95529.72;5138169;27;1074;-56
2023/09/19 06:43:33;;;;;;;;;;;;;;;16.86;97.84;95532.41;5137590;27;1992;-55
2023/09/19 06:46:00;;;;;;;;;;;;;;;16.77;97.24;95525.44;5138004;27;1044;-55
2023/09/19 06:48:26;;;;;;;;;;;;;;;16.82;97.66;95530.25;5137785;27;972;-55
2023/09/19 06:50:56;;;;;;;;;;;;;;;16.95;97.20;95525.03;5137960;27;1032;-56
2023/09/19 06:53:25;;;;;;;;;;;;;;;17.14;98.07;95529.78;5137957;27;952;-55
2023/09/19 06:55:51;;;;;;;;;;;;;;;17.27;96.21;95529.09;5137679;27;1067;-55
2023/09/19 06:58:17;;;;;;;;;;;;;;;17.39;96.13;95523.16;5130542;27;1228;-56
2023/09/19 07:00:44;;;;;;;;;;;;;;;17.24;96.66;95526.75;5117054;28;969;-56
2023/09/19 07:03:11;;;;;;;;;;;;;;;17.36;97.34;95530.63;5116776;28;1906;-55
2023/09/19 07:05:39;;;;;;;;;;;;;;;17.45;95.79;95525.06;5116833;28;960;-56
2023/09/19 07:08:12;;;;;;;;;;;;;;;17.50;97.32;95533.44;5116928;28;1060;-56
2023/09/19 07:10:40;;;;;;;;;;;;;;;17.48;96.61;95527.41;5117131;28;961;-56
2023/09/19 07:13:10;;;;;;;;;;;;;;;17.53;97.66;95525.78;5116743;28;1032;-55
2023/09/19 07:15:39;;;;;;;;;;;;;;;17.61;96.37;95526.69;5116759;28;1164;-56
2023/09/19 07:18:05;;;;;;;;;;;;;;;17.65;95.36;95523.38;5116825;28;1003;-56
2023/09/19 07:20:32;;;;;;;;;;;;;;;17.66;95.80;95522.34;5116533;28;1040;-56
2023/09/19 07:23:01;;;;;;;;;;;;;;;17.75;96.79;95523.84;5116742;28;1999;-56
2023/09/19 07:25:27;;;;;;;;;;;;;;;17.89;96.48;95524.84;5116794;28;1129;-56
2023/09/19 07:27:59;;;;;;;;;;;;;;;18.12;95.04;95531.88;5115934;28;1056;-56
2023/09/19 07:30:26;;;;;;;;;;;;;;;18.33;92.58;95536.34;5116606;28;960;-56
2023/09/19 07:32:52;;;;;;;;;;;;;;;18.28;93.69;95536.94;5115248;28;1111;-56
2023/09/19 07:35:21;;;;;;;;;;;;;;;18.30;93.88;95534.03;5116565;28;1002;-55
2023/09/19 07:37:51;;;;;;;;;;;;;;;18.35;93.91;95536.97;5116322;28;1075;-56
2023/09/19 07:40:19;;;;;;;;;;;;;;;18.48;92.43;95534.34;5116227;28;1091;-55
2023/09/19 07:42:46;;;;;;;;;;;;;;;18.46;94.21;95533.72;5115997;28;1075;-56
2023/09/19 07:45:16;;;;;;;;;;;;;;;18.57;91.97;95526.88;5116061;28;1044;-54
2023/09/19 07:47:46;;;;;;;;;;;;;;;18.49;93.68;95527.88;5116412;28;1036;-56
2023/09/19 07:50:13;;;;;;;;;;;;;;;18.52;93.77;95538.31;5116281;28;981;-56
2023/09/19 07:52:39;;;;;;;;;;;;;;;18.77;92.14;95535.09;5116307;28;1052;-55
2023/09/19 07:55:10;;;;;;;;;;;;;;;18.93;91.27;95525.78;5115972;28;1032;-56
2023/09/19 07:57:37;;;;;;;;;;;;;;;19.04;91.32;95527.06;5115968;28;1244;-56
2023/09/19 08:00:07;;;;;;;;;;;;;;;19.20;89.54;95531.25;5136491;27;924;-56
2023/09/19 08:02:38;;;;;;;;;;;;;;;19.31;90.58;95528.81;5136512;27;975;-56
2023/09/19 08:05:09;;;;;;;;;;;;;;;19.61;87.62;95522.97;5136259;27;1905;-54
2023/09/19 08:07:39;;;;;;;;;;;;;;;19.93;87.87;95531.34;5136284;27;1032;-54
2023/09/19 08:10:12;;;;;;;;;;;;;;;20.24;85.24;95536.09;5136536;27;1002;-54
2023/09/19 08:12:46;;;;;;;;;;;;;;;20.61;81.02;95528.28;5135120;27;1028;-57
2023/09/19 08:15:16;;;;;;;;;;;;;;;20.56;79.13;95527.22;5136235;27;1010;-56
2023/09/19 08:17:42;;;;;;;;;;;;;;;20.65;82.76;95536.84;5136228;27;1205;-57
2023/09/19 08:20:16;;;;;;;;;;;;;;;20.82;80.20;95535.31;5136097;27;971;-56
2023/09/19 08:22:49;;;;;;;;;;;;;;;20.85;80.52;95532.16;5136038;27;1076;-56
2023/09/19 08:25:18;;;;;;;;;;;;;;;20.85;81.11;95528.63;5136207;27;1035;-57
2023/09/19 08:27:48;;;;;;;;;;;;;;;20.71;81.03;95525.09;5135879;27;1043;-57
2023/09/19 08:30:15;;;;;;;;;;;;;;;20.81;81.75;95524.66;5135935;27;965;-57
2023/09/19 08:32:42;;;;;;;;;;;;;;;20.81;80.45;95514.63;5135981;27;1032;-57
2023/09/19 08:35:09;;;;;;;;;;;;;;;20.97;79.74;95515.19;5135825;27;983;-55
2023/09/19 08:37:35;;;;;;;;;;;;;;;21.23;76.16;95512.31;5134428;27;1012;-57
2023/09/19 08:40:01;;;;;;;;;;;;;;;21.41;77.11;95508.81;5136008;27;952;-57
2023/09/19 08:42:28;;;;;;;;;;;;;;;21.56;75.33;95516.69;5135661;27;1233;-57
2023/09/19 08:44:55;;;;;;;;;;;;;;;21.52;75.02;95492.91;5135860;27;1909;-57
2023/09/19 08:47:28;;;;;;;;;;;;;;;21.36;75.72;95505.94;5135389;27;1020;-57
2023/09/19 08:50:02;;;;;;;;;;;;;;;21.20;75.72;95495.59;5134300;27;961;-57
2023/09/19 08:52:36;;;;;;;;;;;;;;;21.23;77.96;95501.44;5135602;27;1079;-56
2023/09/19 08:55:09;;;;;;;;;;;;;;;21.11;73.87;95497.72;5135544;27;956;-57
2023/09/19 08:57:39;;;;;;;;;;;;;;;21.18;76.54;95503.97;5135306;27;1040;-57
2023/09/19 09:00:10;;;;;;;;;;;;;;;21.41;73.86;95502.56;5114700;28;1123;-57
2023/09/19 09:02:40;;;;;;;;;;;;;;;21.61;75.38;95497.84;5114596;28;1031;-57
2023/09/19 09:05:06;;;;;;;;;;;;;;;21.90;73.52;95492.75;5114785;28;1914;-57
2023/09/19 09:07:34;;;;;;;;;;;;;;;22.03;73.73;95484.47;5114674;28;1087;-57
2023/09/19 09:10:02;;;;;;;;;;;;;;;22.22;73.63;95481.78;5114636;28;1031;-57
2023/09/19 09:12:29;;;;;;;;;;;;;;;22.38;69.44;95480.34;5114885;28;1023;-57
2023/09/19 09:14:56;;;;;;;;;;;;;;;22.43;70.05;95475.06;5114488;28;1047;-57
2023/09/19 09:17:23;;;;;;;;;;;;;;;22.54;67.74;95474.31;5114783;28;988;-57
2023/09/19 09:19:49;;;;;;;;;;;;;;;22.52;69.82;95479.16;5114581;28;1035;-57
2023/09/19 09:22:17;;;;;;;;;;;;;;;22.12;68.78;95473.28;5114174;28;1103;-54
2023/09/19 09:25:01;;;;;;;;;;;;;;;22.06;70.70;95468.75;5114300;28;1995;-54
2023/09/19 09:27:27;;;;;;;;;;;;;;;22.35;69.38;95457.13;5114177;28;1100;-54
2023/09/19 09:29:54;;;;;;;;;;;;;;;22.36;68.88;95464.25;5114099;28;961;-54
2023/09/19 09:32:21;;;;;;;;;;;;;;;22.37;69.63;95460.47;5114036;28;1107;-54
2023/09/19 09:35:09;;;;;;;;;;;;;;;22.38;71.90;95458.56;5114289;28;983;-52
2023/09/19 09:37:38;;;;;;;;;;;;;;;22.41;69.33;95461.66;5113004;28;978;-53
2023/09/19 09:40:36;;;;;;;;;;;;;;;22.58;69.52;95463.78;5114281;28;969;-53
2023/09/19 09:42:58;;;;;;;;;;;;;;;22.94;69.04;95445.69;5113579;28;1875;-53
2023/09/19 09:48:03;;;;;;;;;;;;;;;23.29;66.58;95451.28;5114096;28;950;-55
2023/09/19 09:50:55;;;;;;;;;;;;;;;23.31;67.17;95440.97;5112414;28;962;-55
2023/09/19 09:53:36;;;;;;;;;;;;;;;23.26;68.91;95435.41;5113585;28;1323;-54
2023/09/19 09:56:14;;;;;;;;;;;;;;;23.27;68.58;95433.50;5113849;28;1020;-53
2023/09/19 09:58:51;;;;;;;;;;;;;;;23.16;65.77;95427.78;5122806;28;1260;-54
2023/09/19 10:01:18;;;;;;;;;;;;;;;23.30;69.01;95433.03;5134208;27;1039;-54
2023/09/19 10:03:48;;;;;;;;;;;;;;;23.27;68.25;95422.59;5134235;27;1981;-55
2023/09/19 10:09:11;;;;;;;;;;;;;;;23.37;68.11;95428.28;5120236;27;2526;-54
2023/09/19 10:11:47;;;;;;;;;;;;;;;23.05;69.35;95419.56;5113649;28;1056;-55
2023/09/19 10:14:19;;;;;;;;;;;;;;;23.07;70.20;95418.28;5113920;28;1044;-55
2023/09/19 10:16:46;;;;;;;;;;;;;;;23.03;68.56;95421.66;5113609;28;1099;-54
2023/09/19 10:19:22;;;;;;;;;;;;;;;22.94;70.34;95411.09;5113617;28;953;-53
2023/09/19 10:21:49;;;;;;;;;;;;;;;22.98;69.94;95408.72;5113941;28;976;-53
2023/09/19 10:24:17;;;;;;;;;;;;;;;23.02;66.41;95406.38;5113648;28;1934;-53
2023/09/19 10:26:45;;;;;;;;;;;;;;;22.97;68.37;95396.16;5113871;28;980;-53
2023/09/19 10:29:13;;;;;;;;;;;;;;;22.92;67.04;95390.59;5113749;28;985;-54
2023/09/19 10:31:41;;;;;;;;;;;;;;;23.00;67.43;95395.69;5113816;28;1052;-53
2023/09/19 10:34:09;;;;;;;;;;;;;;;23.06;67.59;95400.22;5113720;28;1036;-54
2023/09/19 10:36:36;;;;;;;;;;;;;;;23.09;67.13;95394.31;5113681;28;1016;-53
2023/09/19 10:39:06;;;;;;;;;;;;;;;23.12;66.94;95393.03;5113683;28;1063;-54
2023/09/19 10:41:34;;;;;;;;;;;;;;;23.19;66.85;95399.19;5113567;28;1049;-54
2023/09/19 10:44:06;;;;;;;;;;;;;;;23.18;66.49;95397.53;5113111;28;1980;-53
2023/09/19 10:46:33;;;;;;;;;;;;;;;23.19;68.38;95399.19;5113640;28;961;-53
2023/09/19 10:49:00;;;;;;;;;;;;;;;23.18;69.91;95386.63;5113425;28;1127;-53
2023/09/19 10:51:31;;;;;;;;;;;;;;;23.21;70.22;95385.34;5113481;28;1132;-55
2023/09/19 10:54:15;;;;;;;;;;;;;;;23.21;69.47;95388.88;5113627;28;992;-55
2023/09/19 10:56:48;;;;;;;;;;;;;;;23.16;68.94;95381.41;5113412;28;967;-55
2023/09/19 10:59:21;;;;;;;;;;;;;;;23.31;68.34;95380.94;5127313;28;1256;-55
2023/09/19 11:01:56;;;;;;;;;;;;;;;23.47;68.38;95379.44;5133839;27;957;-55
2023/09/19 11:04:24;;;;;;;;;;;;;;;23.68;66.46;95382.66;5137114;27;1980;-55
2023/09/19 11:07:00;;;;;;;;;;;;;;;23.71;63.65;95371.22;5137636;27;953;-55
2023/09/19 11:09:42;;;;;;;;;;;;;;;23.84;64.30;95362.00;5137340;27;1035;-55
2023/09/19 11:12:09;;;;;;;;;;;;;;;23.91;68.04;95351.78;5137347;27;1099;-54
2023/09/19 11:14:39;;;;;;;;;;;;;;;23.78;64.52;95347.38;5137494;27;1119;-55
2023/09/19 11:17:05;;;;;;;;;;;;;;;23.71;65.52;95341.22;5137305;27;1078;-55
2023/09/19 11:19:53;;;;;;;;;;;;;;;23.73;68.42;95344.53;5137306;27;1047;-55
2023/09/19 11:22:22;;;;;;;;;;;;;;;23.77;67.49;95337.50;5137394;27;1004;-54
2023/09/19 11:24:50;;;;;;;;;;;;;;;23.81;68.32;95333.28;5136991;27;1906;-56
2023/09/19 11:27:18;;;;;;;;;;;;;;;23.80;67.75;95339.81;5137235;27;964;-55
2023/09/19 11:29:44;;;;;;;;;;;;;;;23.74;65.54;95329.81;5123924;27;2649;-55
2023/09/19 11:32:10;;;;;;;;;;;;;;;23.80;68.57;95328.06;5116645;28;1043;-53
2023/09/19 11:34:39;;;;;;;;;;;;;;;23.73;66.11;95323.53;5116393;28;1102;-53
2023/09/19 11:37:14;;;;;;;;;;;;;;;23.73;68.10;95320.81;5117179;27;2567;-52
2023/09/19 11:40:01;;;;;;;;;;;;;;;23.67;67.13;95319.03;5116562;28;961;-53
2023/09/19 11:42:49;;;;;;;;;;;;;;;23.88;67.39;95322.22;5115758;28;1829;-55
2023/09/19 11:45:34;;;;;;;;;;;;;;;23.97;65.32;95316.16;5116023;28;1902;-54
2023/09/19 11:48:01;;;;;;;;;;;;;;;24.04;67.12;95315.19;5116412;28;957;-54
2023/09/19 11:50:27;;;;;;;;;;;;;;;24.02;66.88;95309.97;5116168;28;1039;-54
2023/09/19 11:52:55;;;;;;;;;;;;;;;24.01;68.46;95296.56;5116023;28;1040;-54
2023/09/19 11:55:21;;;;;;;;;;;;;;;23.96;69.44;95300.03;5116171;28;1008;-55
2023/09/19 11:57:50;;;;;;;;;;;;;;;23.95;67.29;95298.34;5117633;27;1267;-54
2023/09/19 12:00:18;;;;;;;;;;;;;;;23.80;67.11;95296.13;5136366;27;1074;-54
2023/09/19 12:02:46;;;;;;;;;;;;;;;23.94;66.54;95285.75;5136694;27;971;-54
2023/09/19 12:05:12;;;;;;;;;;;;;;;24.10;68.67;95278.72;5136529;27;1979;-55
2023/09/19 12:07:48;;;;;;;;;;;;;;;24.22;69.93;95271.31;5136344;27;1023;-55
2023/09/19 12:10:16;;;;;;;;;;;;;;;24.29;68.52;95265.69;5136241;27;1023;-54
2023/09/19 12:12:49;;;;;;;;;;;;;;;24.47;69.59;95265.50;5136092;27;1019;-54
2023/09/19 12:15:22;;;;;;;;;;;;;;;24.54;68.02;95263.44;5136004;27;957;-54
2023/09/19 12:17:48;;;;;;;;;;;;;;;24.55;66.56;95261.56;5136137;27;1031;-53
2023/09/19 12:20:16;;;;;;;;;;;;;;;24.54;67.29;95258.00;5136062;27;1037;-55
2023/09/19 12:22:46;;;;;;;;;;;;;;;24.52;68.10;95262.88;5135091;27;977;-55
2023/09/19 12:25:13;;;;;;;;;;;;;;;24.47;69.29;95256.44;5136071;27;2016;-53
2023/09/19 12:27:56;;;;;;;;;;;;;;;24.51;63.27;95255.75;5135883;27;1023;-52
2023/09/19 12:30:27;;;;;;;;;;;;;;;24.50;66.54;95242.31;5135973;27;957;-53
2023/09/19 12:32:53;;;;;;;;;;;;;;;24.50;65.75;95247.78;5135816;27;1008;-55
2023/09/19 12:35:39;;;;;;;;;;;;;;;24.49;67.00;95246.97;5135758;27;1070;-55
2023/09/19 12:38:06;;;;;;;;;;;;;;;24.61;68.37;95235.97;5136184;27;1051;-55
2023/09/19 12:40:33;;;;;;;;;;;;;;;24.71;64.21;95238.06;5135891;27;1100;-55
2023/09/19 12:43:02;;;;;;;;;;;;;;;24.79;63.02;95245.84;5135545;27;1909;-55
2023/09/19 12:45:30;;;;;;;;;;;;;;;24.88;63.03;95233.41;5134270;27;1004;-55
2023/09/19 12:48:15;;;;;;;;;;;;;;;25.04;67.88;95236.38;5135829;27;1043;-55
2023/09/19 12:51:05;;;;;;;;;;;;;;;25.10;66.63;95238.97;5135531;27;1862;-54
2023/09/19 12:53:40;;;;;;;;;;;;;;;25.00;65.53;95232.50;5135368;27;1079;-55
2023/09/19 12:56:08;;;;;;;;;;;;;;;24.87;66.58;95231.75;5135283;27;1015;-55
2023/09/19 12:58:47;;;;;;;;;;;;;;;24.77;68.75;95228.03;5135103;27;1243;-55
2023/09/19 13:01:14;;;;;;;;;;;;;;;24.75;68.24;95220.88;5135466;27;964;-55
2023/09/19 13:03:40;;;;;;;;;;;;;;;24.79;65.34;95223.13;5135348;27;1914;-55
2023/09/19 13:06:07;;;;;;;;;;;;;;;24.80;68.06;95216.59;5135331;27;1202;-55
2023/09/19 13:08:37;;;;;;;;;;;;;;;24.82;68.49;95215.28;5135018;27;1012;-55
2023/09/19 13:11:06;;;;;;;;;;;;;;;24.79;68.14;95204.00;5135104;27;1048;-56